.
WxDataArchive / Data Records for 2007-10-22
2007-10-21 October 2007 2007-10-23

Data Records for Monday, 22 October 2007

Time	Temp	Chill	HIndex	Humid	Dewpt	 Wind 	HiWind	WindDir	Rain 	Barom 
-----	----	-----	------	-----	-----	------	------	-------	-----	----- 
00:00	52.8	52.8	52.8	75	45.1	0	0	---	0.00	29.957 
00:05	52.6	52.6	52.6	76	45.3	0	0	---	0.00	29.955 
00:10	52.5	52.5	52.5	76	45.2	0	0	---	0.00	29.956 
00:15	52.3	52.3	52.3	77	45.3	0	0	---	0.00	29.957 
00:20	52.2	52.2	52.2	77	45.2	0	0	---	0.00	29.957 
00:25	52.0	52.0	52.0	77	45.0	0	0	---	0.00	29.957 
00:30	51.7	51.7	51.7	78	45.1	0	0	---	0.00	29.958 
00:35	51.6	51.6	51.6	79	45.3	0	0	---	0.00	29.958 
00:40	51.6	51.6	51.6	79	45.3	0	0	---	0.00	29.959 
00:45	51.4	51.4	51.4	79	45.1	0	0	---	0.00	29.960 
00:50	51.3	51.3	51.3	79	45.0	0	0	---	0.00	29.962 
00:55	51.1	51.1	51.1	80	45.1	0	0	---	0.00	29.961 
01:00	51.0	51.0	51.0	80	45.0	0	0	---	0.00	29.960 
01:05	51.0	51.0	51.0	80	45.0	0	0	---	0.00	29.961 
01:10	50.7	50.7	50.7	80	44.8	0	0	---	0.00	29.962 
01:15	50.5	50.5	50.5	81	44.9	0	0	---	0.00	29.961 
01:20	50.4	50.4	50.4	81	44.8	0	0	---	0.00	29.962 
01:25	50.1	50.1	50.1	82	44.8	0	0	---	0.00	29.962 
01:30	49.9	49.9	49.9	82	44.6	0	0	---	0.00	29.962 
01:35	49.8	49.8	49.8	82	44.5	0	0	---	0.00	29.965 
01:40	49.5	49.5	49.5	83	44.6	0	0	---	0.00	29.967 
01:45	49.2	49.2	49.2	83	44.3	0	0	---	0.00	29.969 
01:50	49.1	49.1	49.1	84	44.5	0	0	---	0.00	29.972 
01:55	48.8	48.8	48.8	84	44.2	0	0	---	0.00	29.973 
02:00	48.6	48.6	48.6	84	44.0	0	0	---	0.00	29.972 
02:05	48.5	48.5	48.5	85	44.2	0	0	---	0.00	29.969 
02:10	48.3	48.3	48.3	85	44.0	0	0	---	0.00	29.971 
02:15	48.3	48.3	48.3	86	44.3	0	0	---	0.00	29.970 
02:20	48.3	48.3	48.3	87	44.6	0	0	---	0.00	29.970 
02:25	48.3	48.3	48.3	87	44.6	0	0	---	0.00	29.970 
02:30	48.6	48.6	48.6	87	44.9	0	0	---	0.00	29.964 
02:35	49.2	49.2	49.2	84	44.6	0	0	---	0.00	29.960 
02:40	49.9	49.9	49.9	82	44.6	0	0	---	0.00	29.962 
02:45	50.5	50.5	50.5	81	44.9	0	0	---	0.00	29.960 
02:50	51.1	51.1	51.1	78	44.5	0	0	---	0.00	29.959 
02:55	51.4	51.4	51.4	77	44.4	0	0	---	0.00	29.959 
03:00	51.6	51.6	51.6	77	44.6	0	0	---	0.00	29.959 
03:05	51.7	51.7	51.7	76	44.4	0	0	---	0.00	29.959 
03:10	51.9	51.9	51.9	76	44.6	0	0	---	0.00	29.959 
03:15	52.0	52.0	52.0	75	44.3	0	0	---	0.00	29.960 
03:20	52.2	52.2	52.2	75	44.5	0	0	---	0.00	29.961 
03:25	52.5	52.5	52.5	74	44.5	0	0	---	0.00	29.961 
03:30	52.5	52.5	52.5	73	44.1	0	0	---	0.00	29.962 
03:35	52.6	52.6	52.6	73	44.2	0	0	---	0.00	29.963 
03:40	52.6	52.6	52.6	73	44.2	0	0	---	0.00	29.963 
03:45	52.8	52.8	52.8	73	44.4	0	0	---	0.00	29.963 
03:50	52.8	52.8	52.8	73	44.4	0	0	---	0.00	29.965 
03:55	52.8	52.8	52.8	73	44.4	0	0	---	0.00	29.966 
04:00	52.8	52.8	52.8	73	44.4	0	0	---	0.00	29.968 
04:05	52.8	52.8	52.8	73	44.4	0	0	---	0.00	29.969 
04:10	52.8	52.8	52.8	72	44.0	0	0	---	0.00	29.970 
04:15	52.6	52.6	52.6	73	44.2	0	0	---	0.00	29.968 
04:20	52.6	52.6	52.6	73	44.2	0	0	---	0.00	29.968 
04:25	52.5	52.5	52.5	73	44.1	0	0	---	0.00	29.968 
04:30	52.6	52.6	52.6	72	43.8	0	1	248	0.00	29.972 
04:35	52.5	52.5	52.5	73	44.1	0	0	---	0.00	29.973 
04:40	52.3	52.3	52.3	73	43.9	0	0	---	0.00	29.973 
04:45	52.2	52.2	52.2	73	43.8	0	0	---	0.00	29.974 
04:50	51.9	51.9	51.9	73	43.5	0	0	---	0.00	29.975 
04:55	51.6	51.6	51.6	74	43.6	0	0	---	0.00	29.975 
05:00	51.3	51.3	51.3	75	43.6	0	0	---	0.00	29.976 
05:05	51.1	51.1	51.1	75	43.5	0	0	---	0.00	29.981 
05:10	50.8	50.8	50.8	76	43.5	0	0	---	0.00	29.985 
05:15	51.0	51.0	51.0	76	43.7	0	0	---	0.00	29.986 
05:20	51.0	51.0	51.0	76	43.7	0	0	---	0.00	29.985 
05:25	51.0	51.0	51.0	76	43.7	0	0	---	0.00	29.986 
05:30	51.0	51.0	51.0	75	43.4	0	0	---	0.00	29.990 
05:35	51.1	51.1	51.1	75	43.5	0	0	---	0.00	29.989 
05:40	51.1	51.1	51.1	75	43.5	0	0	---	0.00	29.987 
05:45	51.3	51.3	51.3	74	43.3	0	0	---	0.00	29.989 
05:50	51.6	51.6	51.6	74	43.6	0	1	248	0.00	29.989 
05:55	51.7	51.7	51.7	73	43.3	0	1	248	0.00	29.987 
06:00	52.0	52.0	52.0	73	43.6	0	0	---	0.00	29.983 
06:05	52.0	52.0	52.0	73	43.6	0	0	---	0.00	29.984 
06:10	52.2	52.2	52.2	73	43.8	0	1	248	0.00	29.981 
06:15	52.3	52.3	52.3	73	43.9	0	0	---	0.00	29.980 
06:20	52.3	52.3	52.3	73	43.9	0	1	248	0.00	29.980 
06:25	52.5	52.5	52.5	72	43.7	0	1	248	0.00	29.981 
06:30	52.5	52.5	52.5	72	43.7	0	0	---	0.00	29.980 
06:35	52.5	52.5	52.5	73	44.1	0	0	---	0.00	29.980 
06:40	52.5	52.5	52.5	73	44.1	0	1	248	0.00	29.980 
06:45	52.5	52.5	52.5	73	44.1	0	0	---	0.00	29.980 
06:50	52.6	52.6	52.6	73	44.2	0	1	248	0.00	29.979 
06:55	52.8	52.8	52.8	72	44.0	0	1	248	0.00	29.978 
07:00	53.1	53.1	53.1	72	44.3	0	1	248	0.00	29.978 
07:05	53.3	53.3	53.3	71	44.1	0	3	248	0.00	29.978 
07:10	53.8	53.8	53.8	70	44.2	0	4	248	0.00	29.977 
07:15	54.1	54.1	54.1	69	44.2	0	2	248	0.00	29.977 
07:20	54.5	54.5	54.5	68	44.2	0	3	248	0.00	29.977 
07:25	54.7	54.7	54.7	68	44.3	0	3	248	0.00	29.977 
07:30	55.0	55.0	55.0	67	44.2	0	3	248	0.00	29.975 
07:35	55.1	55.1	55.1	67	44.3	0	2	225	0.00	29.977 
07:40	55.4	55.4	55.4	66	44.2	0	2	225	0.00	29.978 
07:45	55.6	55.6	55.6	66	44.4	0	3	270	0.00	29.976 
07:50	55.7	55.7	55.7	66	44.5	0	1	270	0.00	29.977 
07:55	56.0	56.0	56.0	66	44.8	0	1	270	0.00	29.976 
08:00	56.3	56.3	56.3	65	44.7	0	1	270	0.00	29.975 
08:05	56.5	56.5	56.5	65	44.9	0	2	270	0.00	29.977 
08:10	56.9	56.9	56.9	65	45.3	0	2	248	0.00	29.980 
08:15	57.5	57.5	57.5	64	45.4	0	2	248	0.00	29.982 
08:20	58.3	58.3	58.3	63	45.8	0	2	270	0.00	29.984 
08:25	58.6	58.6	58.6	62	45.6	0	2	248	0.00	29.981 
08:30	59.2	59.2	59.2	62	46.2	1	4	270	0.00	29.981 
08:35	59.6	59.6	59.6	61	46.1	0	3	248	0.00	29.978 
08:40	60.2	60.2	60.2	59	45.8	0	2	248	0.00	29.976 
08:45	60.9	60.9	60.9	58	46.0	1	3	270	0.00	29.975 
08:50	61.5	61.5	61.5	57	46.1	0	5	270	0.00	29.976 
08:55	62.1	62.1	62.1	57	46.7	0	3	270	0.00	29.977 
09:00	62.7	62.7	62.7	56	46.8	1	4	248	0.00	29.975 
09:05	63.1	63.1	63.1	55	46.7	2	6	68	0.00	29.977 
09:10	63.2	63.2	63.2	54	46.3	1	4	135	0.00	29.976 
09:15	63.4	63.4	63.4	53	46.0	1	4	248	0.00	29.976 
09:20	63.5	63.5	63.5	54	46.6	1	6	248	0.00	29.976 
09:25	63.9	63.9	63.9	54	46.9	1	10	270	0.00	29.974 
09:30	64.5	64.5	64.5	52	46.5	1	5	248	0.00	29.967 
09:35	64.8	64.8	64.8	51	46.2	1	5	248	0.00	29.968 
09:40	65.2	65.2	65.2	52	47.1	1	4	248	0.00	29.967 
09:45	65.6	65.6	65.6	51	47.0	1	3	248	0.00	29.964 
09:50	66.1	66.1	66.1	51	47.4	1	4	248	0.00	29.965 
09:55	66.4	66.4	66.4	50	47.2	2	5	248	0.00	29.965 
10:00	66.8	66.8	66.8	49	47.0	1	5	248	0.00	29.960 
10:05	67.1	67.1	67.1	50	47.8	1	4	248	0.00	29.966 
10:10	67.4	67.4	67.4	48	47.0	2	6	248	0.00	29.969 
10:15	67.6	67.6	67.6	49	47.8	2	6	248	0.00	29.968 
10:20	68.1	68.1	68.1	49	48.2	1	4	248	0.00	29.972 
10:25	68.4	68.4	68.4	47	47.4	1	5	225	0.00	29.974 
10:30	69.1	69.1	69.1	51	50.2	1	3	248	0.00	29.970 
10:35	69.6	69.6	69.6	47	48.5	1	3	90	0.00	29.964 
10:40	69.4	69.4	69.4	47	48.3	1	4	248	0.00	29.964 
10:45	69.1	69.1	69.1	47	48.0	1	5	248	0.00	29.962 
10:50	68.9	68.9	68.9	48	48.4	1	4	248	0.00	29.964 
10:55	69.4	69.4	69.4	49	49.4	1	4	248	0.00	29.964 
11:00	69.9	69.9	69.9	47	48.7	1	4	248	0.00	29.964 
11:05	70.1	70.1	70.1	46	48.3	2	5	248	0.00	29.963 
11:10	70.3	70.3	70.3	47	49.1	1	5	225	0.00	29.961 
11:15	70.4	70.4	70.4	50	50.9	1	6	270	0.00	29.958 
11:20	70.8	70.8	70.8	47	49.6	1	4	248	0.00	29.957 
11:25	70.9	70.9	70.9	46	49.1	1	5	248	0.00	29.951 
11:30	71.3	71.3	71.3	46	49.4	1	5	248	0.00	29.947 
11:35	71.5	71.5	71.5	47	50.2	1	4	248	0.00	29.946 
11:40	71.8	71.8	71.8	47	50.5	1	4	68	0.00	29.944 
11:45	72.0	72.0	72.0	45	49.5	2	6	112	0.00	29.939 
11:50	72.1	72.1	72.1	46	50.2	2	7	90	0.00	29.943 
11:55	72.7	72.7	72.7	43	48.9	1	5	315	0.00	29.942 
12:00	72.3	72.3	72.3	43	48.5	2	6	248	0.00	29.943 
12:05	72.0	72.0	72.0	44	48.9	2	5	248	0.00	29.949 
12:10	72.0	72.0	72.0	45	49.5	2	6	270	0.00	29.947 
12:15	72.0	72.0	72.0	46	50.1	1	5	68	0.00	29.946 
12:20	72.1	72.1	72.1	49	51.9	0	3	68	0.00	29.944 
12:25	72.3	72.3	72.3	46	50.3	1	4	270	0.00	29.945 
12:30	72.3	72.3	72.3	48	51.5	1	3	248	0.00	29.943 
12:35	72.7	72.7	72.7	46	50.7	2	5	248	0.00	29.936 
12:40	72.7	72.7	72.7	46	50.7	1	4	270	0.00	29.933 
12:45	72.8	72.8	72.8	44	49.6	2	5	270	0.00	29.929 
12:50	72.7	72.7	72.7	45	50.1	1	4	225	0.00	29.926 
12:55	72.7	72.7	72.7	44	49.5	2	5	248	0.00	29.917 
13:00	72.7	72.7	72.7	45	50.1	1	4	248	0.00	29.916 
13:05	72.5	72.5	72.5	45	49.9	1	6	248	0.00	29.918 
13:10	72.5	72.5	72.5	45	49.9	1	5	248	0.00	29.918 
13:15	72.7	72.7	72.7	46	50.7	1	3	248	0.00	29.917 
13:20	73.0	73.0	73.0	46	51.0	1	4	248	0.00	29.920 
13:25	73.0	73.0	73.0	46	51.0	1	4	270	0.00	29.914 
13:30	72.8	72.8	72.8	45	50.2	1	6	248	0.00	29.912 
13:35	72.8	72.8	72.8	45	50.2	1	5	248	0.00	29.914 
13:40	72.7	72.7	72.7	45	50.1	1	4	248	0.00	29.910 
13:45	72.7	72.7	72.7	45	50.1	1	5	248	0.00	29.902 
13:50	72.7	72.7	72.7	45	50.1	1	5	248	0.00	29.900 
13:55	72.7	72.7	72.7	45	50.1	2	7	248	0.00	29.900 
14:00	72.7	72.7	72.7	46	50.7	0	4	248	0.00	29.894 
14:05	72.5	72.5	72.5	46	50.5	1	4	248	0.00	29.890 
14:10	72.5	72.5	72.5	46	50.5	2	5	270	0.00	29.892 
14:15	72.3	72.3	72.3	46	50.3	1	5	248	0.00	29.891 
14:20	72.3	72.3	72.3	46	50.3	2	5	248	0.00	29.891 
14:25	72.1	72.1	72.1	46	50.2	1	2	292	0.00	29.891 
14:30	71.8	71.8	71.8	47	50.5	1	4	248	0.00	29.883 
14:35	71.6	71.6	71.6	48	50.9	1	4	248	0.00	29.880 
14:40	71.5	71.5	71.5	48	50.8	1	4	90	0.00	29.881 
14:45	71.3	71.3	71.3	49	51.1	1	3	45	0.00	29.882 
14:50	71.1	71.1	71.1	49	51.0	1	2	180	0.00	29.882 
14:55	70.9	70.9	70.9	50	51.3	1	5	22	0.00	29.882 
15:00	70.8	70.8	70.8	50	51.2	0	4	248	0.00	29.882 
15:05	70.6	70.6	70.6	50	51.0	1	4	248	0.00	29.880 
15:10	70.6	70.6	70.6	50	51.0	0	3	248	0.00	29.880 
15:15	70.6	70.6	70.6	52	52.1	0	1	248	0.00	29.872 
15:20	70.4	70.4	70.4	52	51.9	0	1	248	0.00	29.868 
15:25	70.3	70.3	70.3	52	51.8	0	1	248	0.00	29.867 
15:30	70.3	70.3	70.3	52	51.8	0	0	---	0.00	29.865 
15:35	70.1	70.1	70.1	53	52.2	0	0	---	0.00	29.866 
15:40	70.1	70.1	70.1	53	52.2	0	1	248	0.00	29.855 
15:45	70.1	70.1	70.1	52	51.6	0	0	---	0.00	29.851 
15:50	69.9	69.9	69.9	52	51.5	0	1	248	0.00	29.853 
15:55	69.9	69.9	69.9	54	52.5	0	0	---	0.00	29.857 
16:00	69.9	69.9	69.9	54	52.5	0	0	---	0.00	29.854 
16:05	69.8	69.8	69.8	53	51.9	0	1	248	0.00	29.853 
16:10	69.6	69.6	69.6	52	51.2	0	2	248	0.00	29.851 
16:15	69.6	69.6	69.6	53	51.7	0	1	225	0.00	29.850 
16:20	69.4	69.4	69.4	55	52.5	0	0	---	0.00	29.851 
16:25	69.3	69.3	69.3	56	52.9	0	0	---	0.00	29.851 
16:30	68.9	68.9	68.9	56	52.5	0	0	---	0.00	29.850 
16:35	68.8	68.8	68.8	58	53.4	0	0	---	0.00	29.850 
16:40	68.6	68.6	68.6	59	53.7	0	0	---	0.00	29.850 
16:45	68.4	68.4	68.4	59	53.5	0	0	---	0.00	29.850 
16:50	68.1	68.1	68.1	60	53.7	0	0	---	0.00	29.848 
16:55	67.9	67.9	67.9	61	53.9	0	0	---	0.00	29.849 
17:00	67.6	67.6	67.6	62	54.1	0	0	---	0.00	29.853 
17:05	67.3	67.3	67.3	65	55.1	0	0	---	0.00	29.855 
17:10	67.1	67.1	67.1	65	54.9	0	0	---	0.00	29.855 
17:15	66.9	66.9	66.9	66	55.2	0	0	---	0.00	29.855 
17:20	66.6	66.6	66.6	67	55.3	0	2	225	0.00	29.855 
17:25	66.4	66.4	66.4	68	55.5	0	1	225	0.00	29.856 
17:30	66.1	66.1	66.1	69	55.6	1	3	248	0.00	29.856 
17:35	65.8	65.8	65.8	70	55.7	0	3	270	0.00	29.856 
17:40	65.5	65.5	65.5	72	56.2	0	1	270	0.00	29.853 
17:45	65.2	65.2	65.2	73	56.3	0	1	270	0.00	29.858 
17:50	64.7	64.7	64.7	75	56.6	0	3	270	0.00	29.859 
17:55	64.3	64.3	64.3	76	56.6	0	1	270	0.00	29.858 
18:00	64.0	64.0	64.0	78	57.0	0	0	---	0.00	29.862 
18:05	63.9	63.9	63.9	79	57.3	0	1	270	0.00	29.857 
18:10	63.5	63.5	63.5	79	56.9	0	2	270	0.01	29.856 
18:15	63.4	63.4	63.4	80	57.1	0	2	248	0.00	29.855 
18:20	63.1	63.1	63.1	81	57.2	0	4	248	0.00	29.855 
18:25	62.7	62.7	62.7	82	57.1	0	1	248	0.00	29.856 
18:30	62.4	62.4	62.4	83	57.2	0	1	248	0.00	29.856 
18:35	62.3	62.3	62.3	84	57.4	0	1	248	0.00	29.856 
18:40	62.0	62.0	62.0	86	57.8	0	1	248	0.00	29.856 
18:45	61.6	61.6	61.6	87	57.7	0	2	248	0.01	29.857 
18:50	61.5	61.5	61.5	88	57.9	0	1	248	0.01	29.858 
18:55	61.3	61.3	61.3	89	58.0	0	1	248	0.02	29.865 
19:00	61.2	61.2	61.2	90	58.2	0	1	248	0.01	29.872 
19:05	61.0	61.0	61.0	91	58.4	0	1	248	0.02	29.870 
19:10	60.9	60.9	60.9	92	58.6	0	2	248	0.01	29.870 
19:15	60.7	60.7	60.7	93	58.7	0	1	248	0.02	29.870 
19:20	60.7	60.7	60.7	93	58.7	0	1	248	0.02	29.870 
19:25	60.5	60.5	60.5	93	58.5	0	0	---	0.01	29.872 
19:30	60.5	60.5	60.5	94	58.8	0	1	248	0.01	29.872 
19:35	60.2	60.2	60.2	94	58.5	0	1	248	0.02	29.870 
19:40	59.9	59.9	59.9	94	58.2	0	1	270	0.01	29.868 
19:45	59.8	59.8	59.8	94	58.1	0	1	270	0.01	29.868 
19:50	59.6	59.6	59.6	95	58.2	0	1	270	0.01	29.867 
19:55	59.5	59.5	59.5	95	58.1	0	1	270	0.01	29.858 
20:00	59.3	59.3	59.3	95	57.9	0	0	---	0.00	29.856 
20:05	59.3	59.3	59.3	95	57.9	0	0	---	0.00	29.847 
20:10	59.3	59.3	59.3	95	57.9	0	0	---	0.01	29.841 
20:15	59.2	59.2	59.2	95	57.8	0	0	---	0.00	29.837 
20:20	59.2	59.2	59.2	95	57.8	0	0	---	0.00	29.835 
20:25	59.2	59.2	59.2	95	57.8	0	0	---	0.00	29.835 
20:30	59.2	59.2	59.2	95	57.8	0	0	---	0.00	29.833 
20:35	59.2	59.2	59.2	96	58.1	0	0	---	0.00	29.826 
20:40	59.2	59.2	59.2	96	58.1	0	0	---	0.01	29.821 
20:45	59.2	59.2	59.2	96	58.1	0	0	---	0.00	29.820 
20:50	59.0	59.0	59.0	96	57.9	0	0	---	0.00	29.818 
20:55	59.0	59.0	59.0	96	57.9	0	0	---	0.01	29.819 
21:00	59.0	59.0	59.0	96	57.9	0	0	---	0.00	29.817 
21:05	59.0	59.0	59.0	96	57.9	0	0	---	0.01	29.815 
21:10	59.0	59.0	59.0	96	57.9	0	0	---	0.00	29.815 
21:15	59.2	59.2	59.2	96	58.1	0	1	270	0.01	29.807 
21:20	59.2	59.2	59.2	96	58.1	0	1	270	0.00	29.800 
21:25	59.2	59.2	59.2	96	58.1	0	1	270	0.01	29.802 
21:30	59.0	59.0	59.0	96	57.9	0	2	270	0.00	29.803 
21:35	59.0	59.0	59.0	96	57.9	0	1	270	0.00	29.802 
21:40	59.0	59.0	59.0	96	57.9	0	0	---	0.01	29.805 
21:45	58.9	58.9	58.9	96	57.8	0	0	---	0.01	29.802 
21:50	58.9	58.9	58.9	96	57.8	0	0	---	0.00	29.800 
21:55	58.9	58.9	58.9	96	57.8	0	0	---	0.01	29.803 
22:00	58.9	58.9	58.9	96	57.8	0	0	---	0.00	29.799 
22:05	58.9	58.9	58.9	96	57.8	0	0	---	0.01	29.790 
22:10	58.9	58.9	58.9	96	57.8	0	0	---	0.00	29.792 
22:15	58.9	58.9	58.9	96	57.8	0	0	---	0.00	29.794 
22:20	58.7	58.7	58.7	96	57.6	0	0	---	0.01	29.798 
22:25	58.7	58.7	58.7	97	57.8	0	1	270	0.00	29.799 
22:30	58.7	58.7	58.7	97	57.8	0	1	270	0.00	29.796 
22:35	58.7	58.7	58.7	97	57.8	0	0	---	0.00	29.782 
22:40	58.7	58.7	58.7	97	57.8	0	1	270	0.00	29.781 
22:45	58.6	58.6	58.6	97	57.7	0	1	270	0.01	29.769 
22:50	58.6	58.6	58.6	97	57.7	0	2	0	0.00	29.766 
22:55	58.6	58.6	58.6	97	57.7	0	1	0	0.00	29.772 
23:00	58.6	58.6	58.6	97	57.7	0	1	0	0.00	29.770 
23:05	58.4	58.4	58.4	97	57.5	0	1	0	0.00	29.766 
23:10	58.4	58.4	58.4	97	57.5	0	1	0	0.00	29.778 
23:15	58.4	58.4	58.4	97	57.5	0	0	---	0.00	29.765 
23:20	58.4	58.4	58.4	97	57.5	0	1	0	0.00	29.764 
23:25	58.3	58.3	58.3	97	57.5	0	1	0	0.00	29.764 
23:30	58.1	58.1	58.1	97	57.3	0	1	0	0.00	29.754 
23:35	58.0	58.0	58.0	97	57.2	0	2	0	0.00	29.751 
23:40	58.0	58.0	58.0	97	57.2	0	1	0	0.00	29.749 
23:45	57.8	57.8	57.8	97	57.0	0	2	90	0.00	29.746 
23:50	57.8	57.8	57.8	97	57.0	0	1	90	0.00	29.748 
23:55	57.6	57.6	57.6	97	56.8	0	0	---	0.00	29.748 

CoCoRaHS
IN-AL-39
A2 Web Hosting
Creative Commons License
GoDaddy
Look for:

loaded 2017-12-11 14:19:54 • last modified 2010-11-18 10:43:29
Privacy PolicyDisclaimer
• wx.awcolley.com is powered by PmWiki v.2002016 •
• all content (unless otherwise noted) © 2017 A W Colley